Time;durP1;ratioP1;P1;durP2;ratioP2;P2;SDS_P1;SDS_P2;PMS_P1;PMS_P2;Temp;Humidity;BMP_temperature;BMP_pressure;BME280_temperature;BME280_humidity;BME280_pressure;Samples;Min_cycle;Max_cycle;Signal;HPM_P1;HPM_P2
2023/03/24 00:00:10;;;;;;;4.63;1.80;;;16.70;1.00;;;;;;5054599;28;20090;-37
2023/03/24 00:02:40;;;;;;;4.77;1.87;;;16.70;1.00;;;;;;5054231;28;20126;-37
2023/03/24 00:05:10;;;;;;;6.57;2.53;;;16.70;1.00;;;;;;5054893;28;20044;-37
2023/03/24 00:07:40;;;;;;;6.32;2.42;;;16.70;1.00;;;;;;5054672;28;20129;-37
2023/03/24 00:10:13;;;;;;;5.38;1.98;;;16.70;1.00;;;;;;5054655;28;20060;-37
2023/03/24 00:12:41;;;;;;;7.03;2.30;;;16.70;1.00;;;;;;5053934;28;20056;-37
2023/03/24 00:15:12;;;;;;;3.80;1.55;;;16.70;1.00;;;;;;5054753;28;20048;-37
2023/03/24 00:17:39;;;;;;;8.95;2.13;;;16.70;1.00;;;;;;5054588;28;20476;-37
2023/03/24 00:20:13;;;;;;;5.03;1.52;;;16.70;1.00;;;;;;5054525;28;20041;-37
2023/03/24 00:22:41;;;;;;;4.63;1.35;;;16.70;1.00;;;;;;5053772;28;20389;-37
2023/03/24 00:25:10;;;;;;;6.15;1.60;;;16.70;1.00;;;;;;5053906;28;20051;-37
2023/03/24 00:27:37;;;;;;;7.63;2.17;;;16.60;1.00;;;;;;5054674;28;20049;-37
2023/03/24 00:30:07;;;;;;;4.47;1.65;;;16.60;1.00;;;;;;5054337;28;20041;-37
2023/03/24 00:32:37;;;;;;;5.50;1.73;;;16.60;1.00;;;;;;5052571;28;20147;-37
2023/03/24 00:35:09;;;;;;;5.55;2.75;;;16.60;1.00;;;;;;5052955;28;20076;-37
2023/03/24 00:37:36;;;;;;;3.97;1.70;;;16.60;1.00;;;;;;5052416;28;20091;-37
2023/03/24 00:40:11;;;;;;;4.65;1.35;;;16.70;1.00;;;;;;5053432;28;20079;-37
2023/03/24 00:42:39;;;;;;;3.85;1.50;;;16.70;1.00;;;;;;5053446;28;20061;-37
2023/03/24 00:45:08;;;;;;;4.35;1.90;;;16.60;1.00;;;;;;5054034;28;20037;-37
2023/03/24 00:47:36;;;;;;;3.00;1.50;;;16.60;1.00;;;;;;5052608;28;20049;-37
2023/03/24 00:50:10;;;;;;;5.80;1.90;;;16.60;1.00;;;;;;5053985;28;20045;-37
2023/03/24 00:52:42;;;;;;;5.28;1.48;;;16.60;1.00;;;;;;5053351;28;20044;-37
2023/03/24 00:55:14;;;;;;;7.40;1.90;;;16.60;1.00;;;;;;5052464;28;20045;-37
2023/03/24 00:57:49;;;;;;;4.00;1.77;;;16.60;1.00;;;;;;5053850;28;20056;-37
2023/03/24 01:00:26;;;;;;;4.93;1.55;;;16.60;1.00;;;;;;5053844;28;20029;-37
2023/03/24 01:02:55;;;;;;;3.15;1.65;;;16.60;1.00;;;;;;5053444;28;20188;-37
2023/03/24 01:05:27;;;;;;;6.25;1.70;;;16.60;1.00;;;;;;5052428;28;20048;-37
2023/03/24 01:08:02;;;;;;;5.53;1.40;;;16.60;1.00;;;;;;5052318;28;20049;-37
2023/03/24 01:10:32;;;;;;;8.70;2.55;;;16.60;1.00;;;;;;5053631;28;20277;-37
2023/03/24 01:13:00;;;;;;;5.28;1.48;;;16.60;1.00;;;;;;5051517;28;20049;-37
2023/03/24 01:15:33;;;;;;;2.55;1.40;;;16.60;1.00;;;;;;5053399;28;20045;-37
2023/03/24 01:18:02;;;;;;;4.57;1.73;;;16.50;1.00;;;;;;5053459;28;20496;-37
2023/03/24 01:20:34;;;;;;;3.83;1.80;;;16.60;1.00;;;;;;5051989;28;20049;-37
2023/03/24 01:23:04;;;;;;;2.25;1.17;;;16.50;1.00;;;;;;5052675;28;20029;-37
2023/03/24 01:25:32;;;;;;;3.50;1.67;;;16.60;1.00;;;;;;5051995;28;20506;-37
2023/03/24 01:27:59;;;;;;;3.20;1.48;;;16.50;1.00;;;;;;5052044;28;20095;-37
2023/03/24 01:30:27;;;;;;;6.22;2.25;;;16.50;1.00;;;;;;5053182;28;20496;-37
2023/03/24 01:32:55;;;;;;;4.28;1.70;;;16.60;1.00;;;;;;5051116;28;20049;-37
2023/03/24 01:35:24;;;;;;;7.13;1.88;;;16.50;1.00;;;;;;5052898;28;20086;-37
2023/03/24 01:37:55;;;;;;;6.13;1.70;;;16.50;1.00;;;;;;5053127;28;20048;-37
2023/03/24 01:40:25;;;;;;;4.82;2.00;;;16.50;1.00;;;;;;5051542;28;20128;-37
2023/03/24 01:42:52;;;;;;;5.25;1.67;;;16.50;1.00;;;;;;5052205;28;20037;-37
2023/03/24 01:45:37;;;;;;;6.40;2.28;;;16.50;1.00;;;;;;5052928;28;20076;-37
2023/03/24 01:48:20;;;;;;;5.53;1.55;;;16.50;1.00;;;;;;5051389;28;20052;-37
2023/03/24 01:51:10;;;;;;;9.70;2.22;;;16.50;1.00;;;;;;5051286;28;20049;-37
2023/03/24 01:53:43;;;;;;;3.97;1.40;;;16.50;1.00;;;;;;5050655;28;20140;-37
2023/03/24 01:56:11;;;;;;;3.72;1.58;;;16.50;1.00;;;;;;5051326;28;20049;-37
2023/03/24 01:58:48;;;;;;;4.75;1.10;;;16.50;1.00;;;;;;5051418;28;20132;-37
2023/03/24 02:01:20;;;;;;;5.82;2.17;;;16.50;1.00;;;;;;5051382;28;20045;-37
2023/03/24 02:04:02;;;;;;;8.32;2.38;;;16.50;1.00;;;;;;5049798;28;20504;-37
2023/03/24 02:06:33;;;;;;;8.52;2.20;;;16.50;1.00;;;;;;5050764;28;20059;-37
2023/03/24 02:09:01;;;;;;;2.95;1.45;;;16.50;1.00;;;;;;5049645;28;20045;-37
2023/03/24 02:11:30;;;;;;;2.65;1.20;;;16.50;1.00;;;;;;5057200;28;20396;-37
2023/03/24 02:14:02;;;;;;;5.18;1.45;;;16.50;1.00;;;;;;5050817;28;20041;-37
2023/03/24 02:16:32;;;;;;;6.53;1.90;;;16.50;1.00;;;;;;5062800;28;20048;-37
2023/03/24 02:19:36;;;;;;;4.07;1.40;;;16.40;1.00;;;;;;5072072;28;20033;-37
2023/03/24 02:22:23;;;;;;;4.82;1.63;;;16.50;1.00;;;;;;5062550;28;20127;-37
2023/03/24 02:25:23;;;;;;;10.52;1.95;;;16.50;1.00;;;;;;5070590;28;20139;-37
2023/03/24 02:28:05;;;;;;;8.75;2.13;;;16.40;1.00;;;;;;5070934;28;20048;-37
2023/03/24 02:30:48;;;;;;;4.63;1.60;;;16.40;1.00;;;;;;5070855;28;20058;-37
2023/03/24 02:33:43;;;;;;;8.02;2.17;;;16.40;1.00;;;;;;5070104;28;20143;-37
2023/03/24 02:36:32;;;;;;;3.05;1.20;;;16.40;1.00;;;;;;5070801;28;20050;-37
2023/03/24 02:39:33;;;;;;;7.05;2.67;;;16.40;1.00;;;;;;5060591;28;20131;-37
2023/03/24 02:42:36;;;;;;;5.43;1.38;;;16.40;1.00;;;;;;5025315;28;20050;-37
2023/03/24 02:45:06;;;;;;;10.13;2.13;;;16.40;1.00;;;;;;5025839;28;20053;-37
2023/03/24 02:47:41;;;;;;;8.65;1.45;;;16.40;1.00;;;;;;5031828;28;20059;-37
2023/03/24 02:50:34;;;;;;;3.05;1.65;;;16.40;1.00;;;;;;5032097;28;20045;-37
2023/03/24 02:53:18;;;;;;;5.82;1.70;;;16.40;1.00;;;;;;5029981;28;20607;-37
2023/03/24 02:56:24;;;;;;;5.45;1.50;;;16.40;1.00;;;;;;5031756;28;20041;-37
2023/03/24 02:59:01;;;;;;;5.13;1.38;;;16.40;1.00;;;;;;5030622;28;20052;-37
2023/03/24 03:01:36;;;;;;;5.15;1.40;;;16.40;1.00;;;;;;5031310;28;20045;-37
2023/03/24 03:04:48;;;;;;;5.80;1.50;;;16.40;1.00;;;;;;5034137;28;20477;-37
2023/03/24 03:07:20;;;;;;;3.88;1.25;;;16.40;1.00;;;;;;5034667;28;20045;-37
2023/03/24 03:10:08;;;;;;;9.50;1.52;;;16.40;1.00;;;;;;5035959;28;20042;-37
2023/03/24 03:12:36;;;;;;;4.22;1.30;;;16.40;1.00;;;;;;5034297;28;20136;-37
2023/03/24 03:15:31;;;;;;;6.13;2.42;;;16.40;1.00;;;;;;5042803;28;20040;-37
2023/03/24 03:18:10;;;;;;;4.53;1.70;;;16.30;1.00;;;;;;5065981;28;20064;-37
2023/03/24 03:20:49;;;;;;;7.07;2.03;;;16.40;1.00;;;;;;5074421;28;20388;-37
2023/03/24 03:23:21;;;;;;;3.90;1.05;;;16.40;1.00;;;;;;5073693;28;20067;-37
2023/03/24 03:25:54;;;;;;;6.75;2.00;;;16.30;1.00;;;;;;5074478;28;20101;-37
2023/03/24 03:28:24;;;;;;;7.95;1.77;;;16.30;1.00;;;;;;5075499;28;20044;-37
2023/03/24 03:30:58;;;;;;;8.05;1.92;;;16.30;1.00;;;;;;5074153;28;20460;-37
2023/03/24 03:33:33;;;;;;;9.15;1.98;;;16.30;1.00;;;;;;5073394;28;20049;-37
2023/03/24 03:36:26;;;;;;;7.25;2.10;;;16.40;1.00;;;;;;5075404;28;20037;-37
2023/03/24 03:39:02;;;;;;;6.07;1.60;;;16.30;1.00;;;;;;5075380;28;20032;-37
2023/03/24 03:41:30;;;;;;;2.70;0.93;;;16.30;1.00;;;;;;5074055;28;20392;-37
2023/03/24 03:43:57;;;;;;;8.43;2.17;;;16.30;1.00;;;;;;5073182;28;20040;-37
2023/03/24 03:46:25;;;;;;;6.07;1.60;;;16.30;1.00;;;;;;5073838;28;20044;-37
2023/03/24 03:48:53;;;;;;;5.63;2.05;;;16.30;1.00;;;;;;5106780;22;20086;-32
2023/03/24 03:51:20;;;;;;;8.73;2.05;;;16.30;1.00;;;;;;5108091;28;20040;-31
2023/03/24 03:53:59;;;;;;;5.50;1.58;;;16.30;1.00;;;;;;5105146;28;20048;-32
2023/03/24 03:56:30;;;;;;;7.20;1.63;;;16.30;1.00;;;;;;5110731;28;20064;-32
2023/03/24 03:59:28;;;;;;;8.75;1.80;;;16.30;1.00;;;;;;5102302;28;20040;-31
2023/03/24 04:01:57;;;;;;;7.43;1.48;;;16.30;1.00;;;;;;5093783;28;20048;-32
2023/03/24 04:04:47;;;;;;;4.45;1.75;;;16.30;1.00;;;;;;5093154;28;20098;-29
2023/03/24 04:08:22;;;;;;;6.30;1.85;;;16.30;1.00;;;;;;5078029;28;20097;-32
2023/03/24 04:11:00;;;;;;;10.45;2.00;;;16.30;1.00;;;;;;5115720;28;20104;-29
2023/03/24 04:14:06;;;;;;;5.57;1.50;;;16.30;1.00;;;;;;5113216;28;20048;-30
2023/03/24 04:17:17;;;;;;;6.78;2.08;;;16.30;1.00;;;;;;5113804;28;20092;-30
2023/03/24 04:20:04;;;;;;;6.47;1.92;;;16.20;1.00;;;;;;5089759;28;20319;-30
2023/03/24 04:22:44;;;;;;;7.38;2.03;;;16.30;1.00;;;;;;5104875;28;20088;-30
2023/03/24 04:25:39;;;;;;;4.97;1.20;;;16.30;1.00;;;;;;5113831;28;20495;-30
2023/03/24 04:28:32;;;;;;;6.80;1.80;;;16.20;1.00;;;;;;5115090;27;20542;-30
2023/03/24 04:31:13;;;;;;;7.47;1.60;;;16.20;1.00;;;;;;5114850;28;20040;-30
2023/03/24 04:33:49;;;;;;;6.97;1.55;;;16.20;1.00;;;;;;5114321;28;20483;-30
2023/03/24 04:36:41;;;;;;;5.57;1.75;;;16.20;1.00;;;;;;5113595;28;20040;-30
2023/03/24 04:39:30;;;;;;;4.68;1.88;;;16.20;1.00;;;;;;5113380;28;20414;-30
2023/03/24 04:42:08;;;;;;;9.57;1.90;;;16.20;1.00;;;;;;5113555;28;20047;-30
2023/03/24 04:44:36;;;;;;;4.50;1.92;;;16.20;1.00;;;;;;5112872;28;20043;-30
2023/03/24 04:47:30;;;;;;;10.65;2.20;;;16.20;1.00;;;;;;5094618;28;20075;-30
2023/03/24 04:50:29;;;;;;;5.85;1.60;;;16.20;1.00;;;;;;5113651;28;20043;-30
2023/03/24 04:52:58;;;;;;;9.48;1.70;;;16.20;1.00;;;;;;5112602;28;20056;-30
2023/03/24 04:56:06;;;;;;;8.30;1.80;;;16.20;1.00;;;;;;5113197;28;20048;-30
2023/03/24 04:58:59;;;;;;;5.75;1.35;;;16.20;1.00;;;;;;5094085;28;20117;-30
2023/03/24 05:01:29;;;;;;;4.18;1.60;;;16.20;1.00;;;;;;5087767;28;20039;-30
2023/03/24 05:04:25;;;;;;;10.23;1.70;;;16.10;1.00;;;;;;5112273;28;20055;-30
2023/03/24 05:06:53;;;;;;;7.88;2.00;;;16.20;1.00;;;;;;5113061;28;20140;-30
2023/03/24 05:09:24;;;;;;;7.57;2.28;;;16.10;1.00;;;;;;5114181;28;20533;-30
2023/03/24 05:11:51;;;;;;;5.53;1.50;;;16.10;1.00;;;;;;5095698;28;20139;-30
2023/03/24 05:14:20;;;;;;;8.05;1.70;;;16.20;1.00;;;;;;5099677;28;20059;-30
2023/03/24 05:16:47;;;;;;;7.30;1.30;;;16.10;1.00;;;;;;5110937;28;20112;-30
2023/03/24 05:19:17;;;;;;;6.05;1.63;;;16.10;1.00;;;;;;5112672;28;20043;-30
2023/03/24 05:21:44;;;;;;;8.52;1.75;;;16.10;1.00;;;;;;5112632;28;20043;-30
2023/03/24 05:24:11;;;;;;;4.07;1.42;;;16.10;1.00;;;;;;5111376;28;20042;-30
2023/03/24 05:26:38;;;;;;;6.45;1.42;;;16.10;1.00;;;;;;5112585;28;20503;-30
2023/03/24 05:29:11;;;;;;;14.35;2.55;;;16.10;1.00;;;;;;5112545;28;20112;-31
2023/03/24 05:31:39;;;;;;;12.18;2.15;;;16.10;1.00;;;;;;5112285;28;20040;-31
2023/03/24 05:34:08;;;;;;;13.52;1.88;;;16.10;1.00;;;;;;5108258;28;20075;-31
2023/03/24 05:36:47;;;;;;;12.20;2.42;;;16.10;1.00;;;;;;5100636;28;20085;-31
2023/03/24 05:39:18;;;;;;;12.15;2.83;;;16.10;1.00;;;;;;5095321;28;20392;-31
2023/03/24 05:41:53;;;;;;;10.02;2.30;;;16.10;1.00;;;;;;5097239;28;20155;-31
2023/03/24 05:44:19;;;;;;;7.85;1.90;;;16.00;1.00;;;;;;5112495;28;20054;-31
2023/03/24 05:47:00;;;;;;;12.85;2.53;;;16.10;1.00;;;;;;5111903;28;20093;-31
2023/03/24 05:49:27;;;;;;;12.95;1.98;;;16.00;1.00;;;;;;5111967;28;20097;-30
2023/03/24 05:51:55;;;;;;;11.85;2.60;;;16.00;1.00;;;;;;5111942;28;20043;-31
2023/03/24 05:54:22;;;;;;;13.00;2.47;;;16.00;1.00;;;;;;5094305;28;20410;-31
2023/03/24 05:56:54;;;;;;;13.02;2.22;;;16.00;1.00;;;;;;5106291;28;20047;-31
2023/03/24 05:59:33;;;;;;;5.55;1.73;;;16.10;1.00;;;;;;5101445;28;20146;-32
2023/03/24 06:02:35;;;;;;;16.70;2.25;;;16.00;1.00;;;;;;5098766;28;20089;-31
2023/03/24 06:05:08;;;;;;;10.82;2.22;;;16.10;1.00;;;;;;5090635;28;20502;-31
2023/03/24 06:07:37;;;;;;;17.55;1.88;;;16.10;1.00;;;;;;5090334;28;20097;-31
2023/03/24 06:10:06;;;;;;;8.70;1.80;;;16.10;1.00;;;;;;5090654;28;20252;-31
2023/03/24 06:12:41;;;;;;;14.35;2.45;;;16.10;1.00;;;;;;5089700;28;20050;-31
2023/03/24 06:15:09;;;;;;;9.18;2.22;;;16.10;1.00;;;;;;5091894;28;20052;-31
2023/03/24 06:17:36;;;;;;;10.05;1.65;;;16.10;1.00;;;;;;5090946;28;20040;-31
2023/03/24 06:20:14;;;;;;;12.88;2.33;;;16.10;1.00;;;;;;5091259;28;20139;-30
2023/03/24 06:22:57;;;;;;;9.40;1.83;;;16.10;1.00;;;;;;5090336;28;20527;-31
2023/03/24 06:25:29;;;;;;;16.42;3.22;;;16.10;1.00;;;;;;5091194;28;20044;-31
2023/03/24 06:28:21;;;;;;;9.60;2.22;;;16.10;1.00;;;;;;5091043;28;20112;-30
2023/03/24 06:30:49;;;;;;;13.40;2.67;;;16.10;1.00;;;;;;5091145;28;20040;-31
2023/03/24 06:33:24;;;;;;;9.02;1.98;;;16.10;1.00;;;;;;5090062;28;20044;-30
2023/03/24 06:35:52;;;;;;;12.18;2.00;;;16.10;1.00;;;;;;5090228;28;20135;-30
2023/03/24 06:38:21;;;;;;;6.68;1.95;;;16.10;1.00;;;;;;5090576;28;20499;-30
2023/03/24 06:40:48;;;;;;;15.75;2.58;;;16.20;1.00;;;;;;5090913;28;20066;-30
2023/03/24 06:43:15;;;;;;;11.73;2.55;;;16.20;1.00;;;;;;5089969;28;20051;-30
2023/03/24 06:45:43;;;;;;;6.10;1.40;;;16.10;1.00;;;;;;5091026;28;20581;-31
2023/03/24 06:48:17;;;;;;;7.90;2.03;;;16.10;1.00;;;;;;5090647;28;20048;-31
2023/03/24 06:50:44;;;;;;;8.35;2.40;;;16.20;1.00;;;;;;5090882;28;20043;-31
2023/03/24 06:53:12;;;;;;;9.52;2.25;;;16.20;1.00;;;;;;5089928;28;20040;-31
2023/03/24 06:55:39;;;;;;;6.63;1.73;;;16.10;1.00;;;;;;5090642;28;20048;-31
2023/03/24 06:58:07;;;;;;;14.38;2.78;;;16.20;1.00;;;;;;5090478;28;20044;-31
2023/03/24 07:00:35;;;;;;;10.15;1.70;;;16.10;1.00;;;;;;5092054;28;20040;-31
2023/03/24 07:03:25;;;;;;;12.85;2.38;;;16.10;1.00;;;;;;5082644;28;20072;-31
2023/03/24 07:06:11;;;;;;;16.92;2.85;;;16.10;1.00;;;;;;5092338;28;20514;-30
2023/03/24 07:08:37;;;;;;;12.77;3.30;;;16.10;1.00;;;;;;5090482;28;20188;-31
2023/03/24 07:11:08;;;;;;;13.27;2.22;;;16.10;1.00;;;;;;5090518;28;20040;-30
2023/03/24 07:13:37;;;;;;;9.40;2.17;;;16.10;1.00;;;;;;5089677;28;20051;-31
2023/03/24 07:16:04;;;;;;;10.90;2.53;;;16.10;1.00;;;;;;5090429;28;20446;-30
2023/03/24 07:18:33;;;;;;;32.05;3.42;;;16.10;1.00;;;;;;5090557;28;20079;-31
2023/03/24 07:21:03;;;;;;;11.27;2.38;;;16.10;1.00;;;;;;5092005;28;20036;-31
2023/03/24 07:23:32;;;;;;;7.95;1.88;;;16.10;1.00;;;;;;5089698;28;20495;-31
2023/03/24 07:26:05;;;;;;;10.65;2.13;;;16.10;1.00;;;;;;5091651;28;20067;-31
2023/03/24 07:28:47;;;;;;;11.77;3.42;;;16.10;1.00;;;;;;5091958;28;20048;-31
2023/03/24 07:31:36;;;;;;;10.77;2.47;;;16.10;1.00;;;;;;5080189;28;20066;-31
2023/03/24 07:34:07;;;;;;;14.30;2.45;;;16.10;1.00;;;;;;5089568;28;20051;-31
2023/03/24 07:36:36;;;;;;;8.73;2.15;;;16.10;1.00;;;;;;5090133;28;20075;-31
2023/03/24 07:39:05;;;;;;;8.20;2.10;;;16.10;1.00;;;;;;5090372;28;20041;-31
2023/03/24 07:41:34;;;;;;;6.20;1.73;;;16.10;1.00;;;;;;5090173;28;20044;-31
2023/03/24 07:44:07;;;;;;;11.27;2.75;;;16.10;1.00;;;;;;5090768;28;20039;-31
2023/03/24 07:46:47;;;;;;;11.68;2.65;;;16.10;1.00;;;;;;5090238;28;20064;-31
2023/03/24 07:49:14;;;;;;;11.80;1.90;;;16.10;1.00;;;;;;5093404;28;20059;-31
2023/03/24 07:52:05;;;;;;;16.40;2.65;;;16.10;1.00;;;;;;5094062;28;20138;-31
2023/03/24 07:54:35;;;;;;;14.18;3.00;;;16.10;1.00;;;;;;5094837;28;20040;-30
2023/03/24 07:57:02;;;;;;;10.77;3.28;;;16.10;1.00;;;;;;5093707;28;20039;-31
2023/03/24 07:59:29;;;;;;;13.00;2.47;;;16.10;1.00;;;;;;5095021;28;20456;-31
2023/03/24 08:02:19;;;;;;;11.38;2.20;;;16.10;1.00;;;;;;5093803;28;20442;-31
2023/03/24 08:05:09;;;;;;;14.73;2.85;;;16.10;1.00;;;;;;5053274;28;20389;-31
2023/03/24 08:07:52;;;;;;;11.57;2.53;;;16.10;1.00;;;;;;5093523;28;20044;-30
2023/03/24 08:10:22;;;;;;;13.27;2.95;;;16.10;1.00;;;;;;5095132;28;20046;-31
2023/03/24 08:12:49;;;;;;;13.73;2.17;;;16.10;1.00;;;;;;5094140;28;20044;-31
2023/03/24 08:15:16;;;;;;;16.67;3.83;;;16.10;1.00;;;;;;5094870;28;20062;-31
2023/03/24 08:17:43;;;;;;;13.15;3.47;;;16.10;1.00;;;;;;5094608;28;20032;-31
2023/03/24 08:20:14;;;;;;;12.90;2.50;;;16.10;1.00;;;;;;5093243;28;20405;-31
2023/03/24 08:22:43;;;;;;;10.02;1.77;;;16.10;1.00;;;;;;5093844;28;20036;-31
2023/03/24 08:25:11;;;;;;;14.07;2.50;;;16.10;1.00;;;;;;5094494;28;20438;-31
2023/03/24 08:27:39;;;;;;;13.77;3.00;;;16.10;1.00;;;;;;5094327;28;20055;-30
2023/03/24 08:30:12;;;;;;;13.32;2.92;;;16.10;1.00;;;;;;5094582;28;20043;-30
2023/03/24 08:32:54;;;;;;;13.13;3.33;;;16.10;1.00;;;;;;5094223;28;20127;-31
2023/03/24 08:35:32;;;;;;;11.13;2.53;;;16.10;1.00;;;;;;5094565;28;20472;-31
2023/03/24 08:38:00;;;;;;;11.18;2.05;;;16.10;1.00;;;;;;5094334;28;20089;-31
2023/03/24 08:40:33;;;;;;;16.95;2.83;;;16.10;1.00;;;;;;5094494;28;20484;-31
2023/03/24 08:43:02;;;;;;;12.98;2.97;;;16.10;1.00;;;;;;5093976;28;20067;-31
2023/03/24 08:45:31;;;;;;;7.68;3.03;;;16.10;1.00;;;;;;5094353;28;20071;-31
2023/03/24 08:48:00;;;;;;;16.77;2.85;;;16.10;1.00;;;;;;5094070;28;20051;-31
2023/03/24 08:50:31;;;;;;;7.93;2.63;;;16.20;1.00;;;;;;5094191;28;20044;-31
2023/03/24 08:52:57;;;;;;;13.43;3.28;;;16.20;1.00;;;;;;5093156;28;20048;-31
2023/03/24 08:55:25;;;;;;;10.98;2.65;;;16.20;1.00;;;;;;5094074;28;20465;-31
2023/03/24 08:57:52;;;;;;;8.88;2.50;;;16.20;1.00;;;;;;5092474;28;20093;-31
2023/03/24 09:00:20;;;;;;;17.63;3.78;;;16.20;1.00;;;;;;5093064;28;20036;-31
2023/03/24 09:02:52;;;;;;;8.73;2.40;;;16.30;1.00;;;;;;5093134;28;20089;-31
2023/03/24 09:05:21;;;;;;;8.43;2.17;;;16.30;1.00;;;;;;5094009;28;20044;-31
2023/03/24 09:08:07;;;;;;;9.15;2.15;;;16.30;1.00;;;;;;5093724;28;20100;-31
2023/03/24 09:10:34;;;;;;;11.57;2.53;;;16.40;1.00;;;;;;5093760;28;20193;-30
2023/03/24 09:13:03;;;;;;;15.27;2.88;;;16.40;1.00;;;;;;5092933;28;20086;-30
2023/03/24 09:15:30;;;;;;;14.73;2.65;;;16.40;1.00;;;;;;5093829;28;20044;-30
2023/03/24 09:17:57;;;;;;;11.43;2.78;;;16.40;1.00;;;;;;5093443;28;20036;-30
2023/03/24 09:20:24;;;;;;;11.57;3.28;;;16.40;1.00;;;;;;5093726;28;20040;-30
2023/03/24 09:22:51;;;;;;;17.02;3.85;;;16.50;1.00;;;;;;5092700;28;20122;-30
2023/03/24 09:25:19;;;;;;;7.28;2.22;;;16.50;1.00;;;;;;5093501;28;20069;-30
2023/03/24 09:27:46;;;;;;;10.75;2.85;;;16.50;1.00;;;;;;5093260;28;20415;-30
2023/03/24 09:30:15;;;;;;;10.07;2.50;;;16.60;1.00;;;;;;5093532;28;20044;-30
2023/03/24 09:32:43;;;;;;;10.38;2.15;;;16.60;1.00;;;;;;5092400;28;20484;-30
2023/03/24 09:35:10;;;;;;;12.65;2.42;;;16.60;1.00;;;;;;5092982;28;20047;-30
2023/03/24 09:37:37;;;;;;;15.55;2.63;;;16.70;1.00;;;;;;5092860;28;20075;-30
2023/03/24 09:40:06;;;;;;;11.68;3.67;;;16.70;1.00;;;;;;5093340;28;20044;-30
2023/03/24 09:42:37;;;;;;;12.50;4.03;;;16.70;1.00;;;;;;5092697;28;20043;-30
2023/03/24 09:45:12;;;;;;;12.93;3.30;;;16.70;1.00;;;;;;5093381;28;20061;-30
2023/03/24 09:47:47;;;;;;;9.77;2.63;;;16.80;1.00;;;;;;5106691;22;20044;-35
2023/03/24 09:50:37;;;;;;;9.13;1.88;;;16.80;1.00;;;;;;5005917;28;20060;-36
2023/03/24 09:53:23;;;;;;;15.07;3.42;;;16.80;1.00;;;;;;4987603;28;20062;-36
2023/03/24 09:55:51;;;;;;;8.20;3.05;;;16.80;1.00;;;;;;4993396;28;20038;-36
2023/03/24 09:58:19;;;;;;;12.25;4.00;;;16.80;1.00;;;;;;4992461;28;20046;-36
2023/03/24 10:00:46;;;;;;;13.20;2.63;;;16.90;1.00;;;;;;5012621;28;20049;-36
2023/03/24 10:03:21;;;;;;;10.45;3.70;;;16.90;1.00;;;;;;5010820;28;20115;-36
2023/03/24 10:06:07;;;;;;;13.27;3.10;;;16.90;1.00;;;;;;5011649;28;20425;-36
2023/03/24 10:08:42;;;;;;;9.43;2.40;;;16.90;1.00;;;;;;5012659;28;20042;-36
2023/03/24 10:11:20;;;;;;;12.70;3.38;;;17.00;1.00;;;;;;5012781;28;20061;-36
2023/03/24 10:13:47;;;;;;;15.23;3.40;;;17.00;1.00;;;;;;5011977;28;20498;-36
2023/03/24 10:16:40;;;;;;;12.82;3.30;;;17.00;1.00;;;;;;5012719;28;20049;-37
2023/03/24 10:19:18;;;;;;;13.65;2.65;;;17.00;1.00;;;;;;5012717;28;20042;-36
2023/03/24 10:22:01;;;;;;;10.75;3.40;;;17.00;1.00;;;;;;5012551;28;20129;-36
2023/03/24 10:24:52;;;;;;;15.73;4.50;;;17.00;1.00;;;;;;5011888;28;20042;-38
2023/03/24 10:27:30;;;;;;;12.77;2.70;;;17.10;1.00;;;;;;5012893;28;20050;-36
2023/03/24 10:30:13;;;;;;;13.32;3.33;;;17.10;1.00;;;;;;5012673;28;20060;-38
2023/03/24 10:32:41;;;;;;;11.93;2.67;;;17.10;1.00;;;;;;5011663;28;20457;-38
2023/03/24 10:35:17;;;;;;;12.02;2.28;;;17.10;1.00;;;;;;5012388;28;20038;-39
2023/03/24 10:37:44;;;;;;;11.82;2.22;;;17.10;1.00;;;;;;5012162;28;20100;-39
2023/03/24 10:40:17;;;;;;;10.38;2.17;;;17.10;1.00;;;;;;5012320;28;20041;-38
2023/03/24 10:42:47;;;;;;;;;;;17.20;1.00;;;;;;5011956;28;20046;-38
2023/03/24 10:45:37;;;;;;;14.55;2.83;;;17.20;1.00;;;;;;5012394;28;19921;-38
2023/03/24 10:48:06;;;;;;;15.05;2.88;;;17.20;1.00;;;;;;5011958;28;20413;-38
2023/03/24 10:50:34;;;;;;;11.55;2.25;;;17.20;1.00;;;;;;5012501;28;20472;-38
2023/03/24 10:53:08;;;;;;;9.75;2.20;;;17.20;1.00;;;;;;5011313;28;20057;-38
2023/03/24 10:55:38;;;;;;;9.43;3.30;;;17.20;1.00;;;;;;5012278;28;20132;-38
2023/03/24 10:58:20;;;;;;;12.30;2.58;;;17.20;1.00;;;;;;5011706;28;20042;-38
2023/03/24 11:00:47;;;;;;;11.10;2.88;;;17.30;1.00;;;;;;5012014;28;20125;-38
2023/03/24 11:03:20;;;;;;;11.60;2.55;;;17.30;1.00;;;;;;5011433;28;20100;-38
2023/03/24 11:05:47;;;;;;;16.92;3.03;;;17.30;1.00;;;;;;5010910;28;20049;-38
2023/03/24 11:08:25;;;;;;;12.52;2.55;;;17.30;1.00;;;;;;5011845;28;20081;-38
2023/03/24 11:10:53;;;;;;;13.95;3.10;;;17.30;1.00;;;;;;5012039;28;20103;-38
2023/03/24 11:13:29;;;;;;;9.82;2.45;;;17.30;1.00;;;;;;5011217;28;20062;-38
2023/03/24 11:16:26;;;;;;;10.52;2.97;;;17.30;1.00;;;;;;5012199;28;20413;-38
2023/03/24 11:19:01;;;;;;;10.63;2.38;;;17.30;1.00;;;;;;5011925;28;20088;-38
2023/03/24 11:21:30;;;;;;;10.75;2.88;;;17.30;1.00;;;;;;5011743;28;20508;-38
2023/03/24 11:23:58;;;;;;;12.68;2.28;;;17.30;1.00;;;;;;5014232;28;20034;-38
2023/03/24 11:26:37;;;;;;;11.88;2.72;;;17.30;1.00;;;;;;5015822;28;20101;-38
2023/03/24 11:29:17;;;;;;;12.98;2.65;;;17.30;1.00;;;;;;5015971;28;20140;-38
2023/03/24 11:31:53;;;;;;;9.68;2.30;;;17.30;1.00;;;;;;5015697;28;20048;-38
2023/03/24 11:34:24;;;;;;;13.15;2.13;;;17.30;1.00;;;;;;5014961;28;20046;-38
2023/03/24 11:36:59;;;;;;;13.15;3.20;;;17.30;1.00;;;;;;5015535;28;20126;-38
2023/03/24 11:39:33;;;;;;;15.88;3.03;;;17.30;1.00;;;;;;5015681;28;20074;-38
2023/03/24 11:42:16;;;;;;;14.10;3.10;;;17.30;1.00;;;;;;5015597;28;20301;-38
2023/03/24 11:44:50;;;;;;;11.77;2.40;;;17.30;1.00;;;;;;5014851;28;20508;-38
2023/03/24 11:47:31;;;;;;;11.40;2.75;;;17.30;1.00;;;;;;5015445;28;20065;-38
2023/03/24 11:50:16;;;;;;;11.65;2.72;;;17.20;1.00;;;;;;5015327;28;20108;-38
2023/03/24 11:52:55;;;;;;;9.85;2.22;;;17.30;1.00;;;;;;5014437;28;20041;-38
2023/03/24 11:55:46;;;;;;;13.50;2.85;;;17.30;1.00;;;;;;5015448;28;20054;-38
2023/03/24 11:58:34;;;;;;;17.80;3.42;;;17.20;1.00;;;;;;5015133;28;20559;-38
2023/03/24 12:01:18;;;;;;;8.70;2.15;;;17.20;1.00;;;;;;5014902;28;20540;-38
2023/03/24 12:03:51;;;;;;;8.57;1.92;;;17.20;1.00;;;;;;5014417;28;20042;-38
2023/03/24 12:06:43;;;;;;;11.63;2.78;;;17.20;1.00;;;;;;5015097;28;20092;-38
2023/03/24 12:09:37;;;;;;;10.05;2.60;;;17.20;1.00;;;;;;5014727;28;20053;-38
2023/03/24 12:12:13;;;;;;;9.32;3.08;;;17.20;1.00;;;;;;5014882;28;20088;-38
2023/03/24 12:15:05;;;;;;;13.32;2.88;;;17.20;1.00;;;;;;5014290;28;20417;-38
2023/03/24 12:18:14;;;;;;;13.48;3.72;;;17.20;1.00;;;;;;5014670;28;20042;-38
2023/03/24 12:20:50;;;;;;;10.82;2.97;;;17.20;1.00;;;;;;5014883;28;20387;-38
2023/03/24 12:23:43;;;;;;;11.57;3.70;;;17.20;1.00;;;;;;5014057;28;20042;-38
2023/03/24 12:26:16;;;;;;;11.70;2.53;;;17.20;1.00;;;;;;5014850;28;20263;-38
2023/03/24 12:28:51;;;;;;;15.65;2.83;;;17.10;1.00;;;;;;5014600;28;20494;-38
2023/03/24 12:31:18;;;;;;;11.73;2.63;;;17.10;1.00;;;;;;5014446;28;20038;-38
2023/03/24 12:34:15;;;;;;;13.07;2.92;;;17.10;1.00;;;;;;5012877;28;20556;-38
2023/03/24 12:36:53;;;;;;;10.02;2.25;;;17.10;1.00;;;;;;5014397;28;20489;-38
2023/03/24 12:39:28;;;;;;;15.40;2.75;;;17.10;1.00;;;;;;5014659;28;20037;-38
2023/03/24 12:42:15;;;;;;;18.75;3.00;;;17.10;1.00;;;;;;5014460;28;20049;-38
2023/03/24 12:45:11;;;;;;;14.05;4.00;;;17.10;1.00;;;;;;5013849;28;20038;-38
2023/03/24 12:48:07;;;;;;;13.73;2.80;;;17.10;1.00;;;;;;5014362;28;20489;-38
2023/03/24 12:50:57;;;;;;;9.00;1.92;;;17.10;1.00;;;;;;5014252;28;20048;-38
2023/03/24 12:53:48;;;;;;;11.48;2.88;;;17.10;1.00;;;;;;5013355;28;20084;-38
2023/03/24 12:56:17;;;;;;;15.48;3.35;;;17.10;1.00;;;;;;5014209;28;20045;-38
2023/03/24 12:59:09;;;;;;;15.10;2.25;;;17.10;1.00;;;;;;5014102;28;20045;-38
2023/03/24 13:01:47;;;;;;;16.52;2.33;;;17.10;1.00;;;;;;5013957;28;20560;-38
2023/03/24 13:04:34;;;;;;;18.52;3.85;;;17.10;1.00;;;;;;5013299;28;20065;-38
2023/03/24 13:07:06;;;;;;;13.13;2.83;;;17.10;1.00;;;;;;5013993;28;20046;-38
2023/03/24 13:09:47;;;;;;;8.43;2.65;;;17.10;1.00;;;;;;5013901;28;20073;-38
2023/03/24 13:12:19;;;;;;;11.52;2.30;;;17.10;1.00;;;;;;5013569;28;20046;-38
2023/03/24 13:15:10;;;;;;;9.43;2.88;;;17.10;1.00;;;;;;5013588;28;20045;-38
2023/03/24 13:18:03;;;;;;;11.27;2.28;;;17.10;1.00;;;;;;5013642;28;20052;-38
2023/03/24 13:20:47;;;;;;;14.23;2.70;;;17.00;1.00;;;;;;5013764;28;20045;-38
2023/03/24 13:23:23;;;;;;;15.45;2.90;;;17.00;1.00;;;;;;5012993;28;20046;-38
2023/03/24 13:26:01;;;;;;;8.75;2.15;;;17.00;1.00;;;;;;5013673;28;20468;-38
2023/03/24 13:28:35;;;;;;;13.52;2.55;;;17.00;1.00;;;;;;5013405;28;20042;-38
2023/03/24 13:31:03;;;;;;;15.27;3.30;;;17.10;1.00;;;;;;5013606;28;20042;-38
2023/03/24 13:33:33;;;;;;;10.55;2.95;;;17.00;1.00;;;;;;5012628;28;20045;-38
2023/03/24 13:36:13;;;;;;;10.43;2.80;;;17.00;1.00;;;;;;5013513;28;20046;-38
2023/03/24 13:38:50;;;;;;;8.73;2.08;;;17.00;1.00;;;;;;5013386;28;20041;-38